Time;durP1;ratioP1;P1;durP2;ratioP2;P2;SDS_P1;SDS_P2;PMS_P1;PMS_P2;Temp;Humidity;BMP_temperature;BMP_pressure;BME280_temperature;BME280_humidity;BME280_pressure;Samples;Min_cycle;Max_cycle;Signal;HPM_P1;HPM_P2
2021/07/21 00:02:11;;;;;;;2.22;2.00;;;14.60;74.80;;;;;;4938318;28;95381;-46
2021/07/21 00:04:42;;;;;;;2.28;1.90;;;14.70;75.00;;;;;;4939017;28;96946;-45
2021/07/21 00:07:15;;;;;;;3.55;2.20;;;14.70;74.60;;;;;;4944099;28;96466;-45
2021/07/21 00:09:48;;;;;;;2.00;1.80;;;14.80;74.90;;;;;;4941509;28;96508;-45
2021/07/21 00:15:09;;;;;;;2.47;2.28;;;14.80;74.60;;;;;;4941659;28;96097;-46
2021/07/21 00:17:43;;;;;;;3.75;2.25;;;14.80;74.60;;;;;;4941527;28;96557;-46
2021/07/21 00:20:15;;;;;;;3.53;1.95;;;14.90;74.50;;;;;;4938364;28;95912;-45
2021/07/21 00:22:46;;;;;;;2.90;2.33;;;15.00;74.30;;;;;;4943776;28;95807;-46
2021/07/21 00:25:18;;;;;;;6.88;2.08;;;15.00;74.10;;;;;;4941382;28;98215;-45
2021/07/21 00:27:48;;;;;;;2.80;2.47;;;15.00;73.50;;;;;;4943477;28;96040;-40
2021/07/21 00:30:21;;;;;;;2.20;2.00;;;15.00;74.10;;;;;;4937066;28;97619;-42
2021/07/21 00:32:55;;;;;;;2.10;1.90;;;15.00;74.20;;;;;;4933217;28;97516;-44
2021/07/21 00:35:27;;;;;;;2.13;1.92;;;15.10;74.30;;;;;;4939808;28;96619;-45
2021/07/21 00:38:00;;;;;;;2.05;1.90;;;15.10;74.50;;;;;;4943075;28;96413;-46
2021/07/21 00:40:33;;;;;;;2.20;2.00;;;15.20;74.60;;;;;;4925451;28;96570;-45
2021/07/21 00:43:05;;;;;;;3.28;2.35;;;15.20;74.70;;;;;;4942129;28;96026;-46
2021/07/21 00:45:37;;;;;;;2.60;2.03;;;15.20;74.50;;;;;;4939891;28;95752;-43
2021/07/21 00:48:09;;;;;;;2.13;1.98;;;15.30;74.60;;;;;;4934995;28;96905;-44
2021/07/21 00:50:40;;;;;;;2.03;1.88;;;15.30;74.60;;;;;;4941318;28;95838;-44
2021/07/21 00:53:14;;;;;;;2.40;1.85;;;15.30;74.70;;;;;;4940511;28;95904;-45
2021/07/21 00:55:46;;;;;;;3.58;2.28;;;15.40;74.60;;;;;;4944108;28;96442;-45
2021/07/21 00:58:17;;;;;;;2.40;1.92;;;15.40;74.70;;;;;;4941339;28;96042;-46
2021/07/21 01:00:48;;;;;;;2.55;2.05;;;15.50;74.70;;;;;;4942860;28;95817;-45
2021/07/21 01:03:19;;;;;;;4.30;2.47;;;15.50;74.70;;;;;;4942082;28;95900;-45
2021/07/21 01:05:50;;;;;;;2.63;2.00;;;15.50;74.70;;;;;;4943706;28;95802;-46
2021/07/21 01:08:24;;;;;;;4.18;2.25;;;15.50;73.40;;;;;;4930461;28;98438;-44
2021/07/21 01:11:34;;;;;;;3.60;2.30;;;15.40;73.00;;;;;;4945189;28;95732;-44
2021/07/21 01:14:06;;;;;;;2.92;1.85;;;15.40;72.50;;;;;;4933056;28;96128;-43
2021/07/21 01:16:45;;;;;;;2.72;2.08;;;15.40;72.20;;;;;;4938922;28;95633;-40
2021/07/21 01:19:53;;;;;;;2.67;2.40;;;15.40;72.30;;;;;;4933416;28;96427;-43
2021/07/21 01:22:27;;;;;;;7.78;2.70;;;15.40;72.10;;;;;;4942287;28;101380;-44
2021/07/21 01:25:17;;;;;;;4.00;2.30;;;15.50;72.10;;;;;;4942928;28;95890;-43
2021/07/21 01:28:12;;;;;;;6.15;3.00;;;15.50;72.30;;;;;;4943473;28;96418;-44
2021/07/21 01:30:50;;;;;;;3.35;2.30;;;15.50;72.00;;;;;;4925453;28;98938;-44
2021/07/21 01:33:23;;;;;;;3.78;2.22;;;15.50;71.80;;;;;;4931275;28;97757;-43
2021/07/21 01:36:01;;;;;;;7.40;2.85;;;15.50;71.90;;;;;;4945856;28;95756;-42
2021/07/21 01:38:46;;;;;;;2.65;2.13;;;15.40;71.80;;;;;;4943006;28;95849;-43
2021/07/21 01:41:20;;;;;;;3.47;2.45;;;15.50;72.20;;;;;;4933501;28;96162;-45
2021/07/21 01:43:58;;;;;;;6.68;2.80;;;15.50;72.50;;;;;;4941704;28;102417;-44
2021/07/21 01:46:31;;;;;;;2.55;2.20;;;15.50;72.40;;;;;;4936178;28;98773;-46
2021/07/21 01:49:03;;;;;;;10.80;2.85;;;15.60;72.40;;;;;;4927678;28;96525;-45
2021/07/21 01:51:37;;;;;;;2.88;2.25;;;15.60;72.20;;;;;;4944118;28;96382;-45
2021/07/21 01:54:09;;;;;;;3.05;2.42;;;15.60;72.20;;;;;;4930483;28;95938;-45
2021/07/21 01:57:07;;;;;;;2.88;2.50;;;15.60;72.20;;;;;;4930483;28;96264;-44
2021/07/21 01:59:47;;;;;;;2.20;2.00;;;15.60;72.10;;;;;;4935505;28;96128;-45
2021/07/21 02:02:26;;;;;;;3.40;2.92;;;15.60;72.00;;;;;;4941641;28;96715;-43
2021/07/21 02:05:09;;;;;;;3.05;2.28;;;15.60;72.10;;;;;;4942024;28;95998;-43
2021/07/21 02:07:44;;;;;;;3.00;2.47;;;15.60;72.00;;;;;;4934869;28;97032;-44
2021/07/21 02:10:19;;;;;;;4.28;2.15;;;15.60;72.10;;;;;;4943306;28;95969;-43
2021/07/21 02:13:12;;;;;;;3.70;2.10;;;15.60;72.40;;;;;;4941527;28;96181;-43
2021/07/21 02:16:10;;;;;;;4.78;2.63;;;15.60;72.50;;;;;;4937665;28;96415;-44
2021/07/21 02:18:44;;;;;;;3.85;2.60;;;15.70;72.70;;;;;;4934924;28;95980;-45
2021/07/21 02:21:19;;;;;;;3.47;2.22;;;15.70;72.90;;;;;;4940087;28;96189;-44
2021/07/21 02:23:54;;;;;;;4.60;2.67;;;15.70;73.00;;;;;;4941862;28;98943;-42
2021/07/21 02:26:44;;;;;;;2.45;2.15;;;15.80;73.20;;;;;;4941979;28;96483;-41
2021/07/21 02:29:14;;;;;;;2.88;2.22;;;15.80;73.30;;;;;;4944647;28;95832;-45
2021/07/21 02:32:21;;;;;;;3.42;2.72;;;15.90;73.40;;;;;;4912719;28;96028;-42
2021/07/21 02:34:54;;;;;;;4.68;2.25;;;15.90;73.40;;;;;;4926539;28;95901;-43
2021/07/21 02:37:27;;;;;;;4.65;2.42;;;16.00;73.60;;;;;;4941418;28;96024;-44
2021/07/21 02:40:01;;;;;;;3.03;2.00;;;15.90;73.20;;;;;;4945961;28;95631;-44
2021/07/21 02:42:37;;;;;;;2.80;2.22;;;15.90;73.50;;;;;;4939370;28;96401;-39
2021/07/21 02:45:09;;;;;;;3.25;2.30;;;16.00;73.60;;;;;;4941936;28;98512;-46
2021/07/21 02:47:43;;;;;;;3.33;2.50;;;16.10;73.70;;;;;;4922816;28;96740;-43
2021/07/21 02:50:16;;;;;;;2.65;2.13;;;16.10;73.70;;;;;;4939406;28;95940;-45
2021/07/21 02:53:02;;;;;;;2.33;2.03;;;16.10;73.70;;;;;;4943480;28;95812;-45
2021/07/21 02:55:53;;;;;;;3.58;2.47;;;16.10;73.60;;;;;;4926016;28;96341;-44
2021/07/21 02:58:46;;;;;;;5.35;2.45;;;16.20;73.80;;;;;;4941740;28;98324;-45
2021/07/21 03:01:25;;;;;;;2.58;1.95;;;16.20;73.70;;;;;;4937758;28;98723;-44
2021/07/21 03:04:00;;;;;;;2.47;2.00;;;16.20;73.70;;;;;;4943487;28;96136;-45
2021/07/21 03:06:37;;;;;;;2.70;1.92;;;16.20;74.00;;;;;;4936786;28;99315;-45
2021/07/21 03:09:12;;;;;;;2.55;1.77;;;16.30;73.80;;;;;;4941828;28;97110;-44
2021/07/21 03:12:04;;;;;;;2.67;2.08;;;16.30;73.90;;;;;;4939999;28;95813;-43
2021/07/21 03:14:56;;;;;;;2.63;2.10;;;16.40;73.90;;;;;;4944185;28;96297;-43
2021/07/21 03:17:33;;;;;;;3.20;2.40;;;16.40;74.00;;;;;;4938227;28;98404;-45
2021/07/21 03:20:07;;;;;;;2.42;2.20;;;16.40;74.00;;;;;;4925717;28;96005;-44
2021/07/21 03:22:57;;;;;;;2.30;1.88;;;16.40;73.90;;;;;;4939519;28;96295;-44
2021/07/21 03:25:30;;;;;;;5.93;1.98;;;16.50;74.10;;;;;;4942430;28;95773;-44
2021/07/21 03:28:02;;;;;;;2.13;1.83;;;16.50;74.10;;;;;;4939531;28;98078;-44
2021/07/21 03:30:50;;;;;;;2.55;1.95;;;16.60;74.10;;;;;;4921965;28;96922;-44
2021/07/21 03:33:28;;;;;;;2.60;2.08;;;16.60;74.10;;;;;;4941306;28;95834;-43
2021/07/21 03:36:08;;;;;;;2.70;2.22;;;16.60;74.00;;;;;;4942074;28;95757;-45
2021/07/21 03:39:07;;;;;;;3.13;1.80;;;16.60;74.00;;;;;;4938725;28;95899;-43
2021/07/21 03:41:54;;;;;;;3.33;2.45;;;16.60;72.90;;;;;;4933837;28;97328;-43
2021/07/21 03:44:29;;;;;;;3.25;1.80;;;16.60;73.10;;;;;;4931867;28;95914;-42
2021/07/21 03:47:02;;;;;;;3.17;2.17;;;16.60;73.10;;;;;;4937028;28;96540;-44
2021/07/21 03:49:34;;;;;;;2.20;2.00;;;16.70;73.30;;;;;;4931478;28;96974;-45
2021/07/21 03:52:19;;;;;;;2.00;1.80;;;16.70;73.30;;;;;;4945503;28;95923;-45
2021/07/21 03:55:10;;;;;;;3.25;2.15;;;16.70;73.40;;;;;;4940643;28;95755;-44
2021/07/21 03:57:50;;;;;;;2.33;2.03;;;16.70;73.40;;;;;;4938411;28;95907;-44
2021/07/21 04:00:26;;;;;;;3.00;2.13;;;16.80;73.50;;;;;;4926364;28;96476;-45
2021/07/21 04:03:04;;;;;;;2.30;1.60;;;16.80;73.60;;;;;;4940480;28;95828;-46
2021/07/21 04:05:50;;;;;;;2.80;2.15;;;16.80;73.40;;;;;;4940928;28;95736;-44
2021/07/21 04:08:25;;;;;;;3.70;1.85;;;16.80;73.50;;;;;;4940923;28;95848;-44
2021/07/21 04:10:56;;;;;;;2.75;1.63;;;16.80;73.60;;;;;;4940119;28;96103;-43
2021/07/21 04:17:51;;;;;;;4.35;2.80;;;16.60;69.90;;;;;;4938402;28;96501;-44
2021/07/21 04:20:28;;;;;;;2.65;2.13;;;16.50;70.90;;;;;;4923904;28;95858;-43
2021/07/21 04:23:01;;;;;;;3.95;2.65;;;16.50;71.10;;;;;;4940159;28;98055;-43
2021/07/21 04:25:36;;;;;;;7.15;2.15;;;16.50;70.90;;;;;;4940283;28;95919;-44
2021/07/21 04:28:10;;;;;;;9.90;2.42;;;16.60;70.10;;;;;;4923423;28;95752;-45
2021/07/21 04:30:59;;;;;;;5.35;2.10;;;16.60;69.70;;;;;;4929263;28;95865;-44
2021/07/21 04:33:36;;;;;;;4.68;2.33;;;16.60;69.80;;;;;;4942558;28;96218;-42
2021/07/21 04:36:10;;;;;;;5.43;1.90;;;16.70;69.70;;;;;;4943552;28;96148;-44
2021/07/21 04:38:50;;;;;;;4.63;2.05;;;16.70;69.70;;;;;;4938295;28;95884;-43
2021/07/21 04:41:33;;;;;;;5.78;1.70;;;16.70;70.20;;;;;;4943266;28;96572;-43
2021/07/21 04:44:17;;;;;;;4.53;1.95;;;16.70;70.60;;;;;;4944835;28;96635;-43
2021/07/21 04:46:59;;;;;;;5.43;1.70;;;16.80;70.70;;;;;;4934910;28;96837;-42
2021/07/21 04:49:38;;;;;;;2.47;1.58;;;16.80;70.70;;;;;;4938743;28;96525;-44
2021/07/21 04:52:15;;;;;;;3.50;1.80;;;16.80;70.90;;;;;;4942133;28;96676;-46
2021/07/21 04:54:48;;;;;;;3.20;2.00;;;16.90;71.10;;;;;;4944336;28;96266;-40
2021/07/21 04:57:23;;;;;;;1.95;1.65;;;16.90;71.50;;;;;;4925380;28;96280;-42
2021/07/21 05:00:06;;;;;;;3.53;1.50;;;16.90;71.60;;;;;;4943151;28;95784;-43
2021/07/21 05:03:04;;;;;;;2.58;1.80;;;16.90;71.50;;;;;;4925070;28;96296;-44
2021/07/21 05:05:43;;;;;;;3.47;2.08;;;16.90;71.40;;;;;;4943072;28;96522;-44
2021/07/21 05:08:17;;;;;;;2.75;1.65;;;16.90;71.50;;;;;;4941529;28;98711;-44
2021/07/21 05:11:10;;;;;;;4.00;1.55;;;16.80;71.60;;;;;;4941820;28;96623;-43
2021/07/21 05:13:41;;;;;;;2.83;2.10;;;16.80;71.90;;;;;;4927473;28;97157;-45
2021/07/21 05:16:16;;;;;;;3.10;1.73;;;16.90;72.20;;;;;;4941794;28;96060;-45
2021/07/21 05:18:47;;;;;;;1.98;1.48;;;16.90;72.30;;;;;;4926210;28;95997;-45
2021/07/21 05:21:27;;;;;;;3.13;1.38;;;17.00;72.60;;;;;;4939291;28;96152;-45
2021/07/21 05:24:01;;;;;;;2.78;1.42;;;17.10;72.70;;;;;;4935251;28;96159;-44
2021/07/21 05:26:33;;;;;;;5.72;1.98;;;17.10;72.80;;;;;;4926503;28;98531;-45
2021/07/21 05:29:07;;;;;;;4.25;2.13;;;17.10;72.80;;;;;;4925984;28;96559;-44
2021/07/21 05:32:00;;;;;;;3.03;2.33;;;17.10;72.90;;;;;;4937898;28;96472;-47
2021/07/21 05:34:34;;;;;;;2.90;2.50;;;17.20;73.00;;;;;;4941880;28;95353;-45
2021/07/21 05:37:24;;;;;;;3.67;2.85;;;17.20;72.90;;;;;;4941376;28;99551;-44
2021/07/21 05:40:04;;;;;;;4.93;2.40;;;17.20;73.10;;;;;;4936595;28;95366;-45
2021/07/21 05:43:04;;;;;;;4.00;2.35;;;17.20;73.10;;;;;;4940580;28;96297;-45
2021/07/21 05:45:50;;;;;;;4.38;2.55;;;17.30;73.10;;;;;;4940301;28;96438;-46
2021/07/21 05:48:27;;;;;;;3.03;2.30;;;17.30;73.20;;;;;;4932405;28;95840;-46
2021/07/21 05:51:17;;;;;;;3.85;2.30;;;17.30;73.20;;;;;;4943001;28;96481;-45
2021/07/21 05:53:55;;;;;;;2.80;2.10;;;17.40;73.30;;;;;;4941310;28;95839;-46
2021/07/21 05:56:29;;;;;;;3.55;2.15;;;17.40;73.40;;;;;;4943319;28;95706;-44
2021/07/21 05:59:01;;;;;;;3.80;2.78;;;17.40;73.30;;;;;;4940894;28;97416;-46
2021/07/21 06:01:35;;;;;;;3.40;2.63;;;17.40;73.30;;;;;;4942214;28;95804;-45
2021/07/21 06:04:08;;;;;;;3.13;1.98;;;17.50;73.50;;;;;;4941091;28;96074;-45
2021/07/21 06:06:45;;;;;;;4.28;2.13;;;17.50;73.60;;;;;;4943957;28;96278;-46
2021/07/21 06:09:33;;;;;;;2.35;2.15;;;17.50;73.70;;;;;;4940127;28;95704;-44
2021/07/21 06:12:12;;;;;;;2.55;2.00;;;17.50;73.80;;;;;;4935042;28;96144;-47
2021/07/21 06:14:45;;;;;;;2.13;1.77;;;17.60;73.80;;;;;;4921980;28;98406;-46
2021/07/21 06:17:17;;;;;;;4.28;1.83;;;17.60;73.80;;;;;;4941581;28;98045;-46
2021/07/21 06:20:09;;;;;;;2.20;1.63;;;17.60;73.80;;;;;;4941921;28;97605;-46
2021/07/21 06:22:48;;;;;;;2.00;1.80;;;17.60;73.80;;;;;;4945319;28;95804;-46
2021/07/21 06:25:27;;;;;;;2.20;2.00;;;17.60;73.90;;;;;;4931478;28;95887;-46
2021/07/21 06:28:09;;;;;;;;;;;17.60;73.90;;;;;;4943630;28;96609;-46
2021/07/21 06:30:42;;;;;;;2.35;1.73;;;17.60;73.90;;;;;;4921751;28;98043;-46
2021/07/21 06:33:22;;;;;;;1.73;1.50;;;17.70;73.90;;;;;;4944634;28;95788;-46
2021/07/21 06:35:54;;;;;;;2.35;1.63;;;17.70;73.90;;;;;;4942625;28;95983;-46
2021/07/21 06:38:32;;;;;;;2.35;1.58;;;17.70;73.80;;;;;;4942409;28;95822;-45
2021/07/21 06:41:28;;;;;;;1.98;1.60;;;17.70;73.90;;;;;;4935925;28;96568;-45
2021/07/21 06:44:04;;;;;;;3.33;1.70;;;17.70;73.80;;;;;;4944252;28;96063;-45
2021/07/21 06:46:47;;;;;;;1.40;1.30;;;17.80;73.90;;;;;;4918373;28;96477;-46
2021/07/21 06:49:21;;;;;;;2.47;1.42;;;17.80;74.00;;;;;;4941259;28;100090;-45
2021/07/21 06:51:51;;;;;;;2.15;1.52;;;17.80;73.90;;;;;;4944785;28;97010;-45
2021/07/21 06:54:32;;;;;;;1.67;1.58;;;17.80;73.80;;;;;;4943711;28;98055;-45
2021/07/21 06:57:22;;;;;;;2.65;1.50;;;17.80;73.80;;;;;;4942698;28;103791;-46
2021/07/21 07:00:29;;;;;;;3.90;1.80;;;17.80;73.90;;;;;;4886326;28;95530;-46
2021/07/21 07:03:19;;;;;;;2.88;1.60;;;17.90;73.80;;;;;;4920074;28;102920;-45
2021/07/21 07:06:19;;;;;;;2.67;1.92;;;17.90;73.90;;;;;;4899776;28;95895;-46
2021/07/21 07:09:08;;;;;;;2.50;1.95;;;17.80;69.60;;;;;;4942961;28;95837;-44
2021/07/21 07:11:57;;;;;;;4.35;1.92;;;17.70;69.80;;;;;;4940722;28;95750;-47
2021/07/21 07:14:28;;;;;;;;;;;17.50;69.60;;;;;;4944543;28;97311;-45
2021/07/21 07:16:59;;;;;;;7.55;2.30;;;17.50;69.70;;;;;;4937700;28;96255;-46
2021/07/21 07:19:31;;;;;;;3.70;1.88;;;17.50;69.80;;;;;;4944630;28;95787;-46
2021/07/21 07:22:01;;;;;;;2.30;1.83;;;17.40;69.70;;;;;;4942382;28;95690;-46
2021/07/21 07:24:33;;;;;;;3.67;2.22;;;17.40;69.70;;;;;;4943752;28;96014;-45
2021/07/21 07:27:05;;;;;;;6.88;2.13;;;17.30;69.70;;;;;;4941707;28;96123;-46
2021/07/21 07:29:35;;;;;;;4.20;1.77;;;17.30;70.50;;;;;;4944944;28;95972;-46
2021/07/21 07:32:06;;;;;;;3.38;2.03;;;17.30;70.90;;;;;;4935219;28;101658;-45
2021/07/21 07:34:38;;;;;;;2.22;1.50;;;17.30;71.00;;;;;;4942181;28;96137;-46
2021/07/21 07:37:10;;;;;;;2.08;1.80;;;17.40;71.10;;;;;;4940574;28;95969;-45
2021/07/21 07:39:41;;;;;;;7.35;3.17;;;17.40;71.20;;;;;;4944513;28;96195;-46
2021/07/21 07:42:12;;;;;;;;;;;17.50;71.40;;;;;;4941641;28;96221;-46
2021/07/21 07:44:46;;;;;;;2.75;1.80;;;17.50;70.80;;;;;;4944197;28;95809;-47
2021/07/21 07:47:17;;;;;;;2.80;1.50;;;17.40;70.40;;;;;;4932989;28;106135;-47
2021/07/21 07:49:49;;;;;;;4.95;1.98;;;17.30;70.70;;;;;;4927998;28;96972;-47
2021/07/21 07:52:22;;;;;;;4.10;2.00;;;17.30;70.70;;;;;;4942640;28;95827;-45
2021/07/21 07:54:52;;;;;;;2.55;1.80;;;17.20;70.80;;;;;;4944577;28;96941;-46
2021/07/21 07:57:23;;;;;;;3.15;2.00;;;17.20;70.90;;;;;;4944471;28;95536;-46
2021/07/21 07:59:54;;;;;;;3.17;1.80;;;17.20;70.90;;;;;;4939009;28;96051;-46
2021/07/21 08:02:24;;;;;;;2.83;1.75;;;17.20;70.90;;;;;;4939371;28;96381;-45
2021/07/21 08:04:55;;;;;;;3.85;1.70;;;17.20;71.10;;;;;;4931379;28;96491;-46
2021/07/21 08:07:32;;;;;;;4.13;1.92;;;17.10;71.00;;;;;;4942970;28;96195;-45
2021/07/21 08:10:04;;;;;;;4.57;1.55;;;17.20;71.40;;;;;;4939059;28;96498;-45
2021/07/21 08:12:34;;;;;;;;;;;17.20;71.20;;;;;;4944387;28;96073;-45
2021/07/21 08:15:07;;;;;;;3.17;1.83;;;17.10;71.00;;;;;;4942450;28;96632;-46
2021/07/21 08:17:40;;;;;;;2.42;1.98;;;17.10;70.90;;;;;;4939774;28;96188;-45
2021/07/21 08:20:11;;;;;;;4.18;2.00;;;17.00;71.20;;;;;;4941456;28;97016;-45
2021/07/21 08:22:42;;;;;;;4.22;1.90;;;16.90;71.40;;;;;;4941918;28;95840;-46
2021/07/21 08:25:17;;;;;;;5.40;1.88;;;16.90;71.50;;;;;;4939417;28;96592;-46
2021/07/21 08:27:54;;;;;;;5.00;2.10;;;16.80;71.20;;;;;;4943275;28;96034;-46
2021/07/21 08:30:26;;;;;;;4.93;2.22;;;16.80;71.50;;;;;;4936746;28;95947;-46
2021/07/21 08:32:58;;;;;;;4.18;2.15;;;16.80;71.60;;;;;;4943111;28;95722;-46
2021/07/21 08:35:32;;;;;;;4.15;2.80;;;16.70;71.50;;;;;;4929855;28;95894;-46
2021/07/21 08:38:06;;;;;;;5.20;3.10;;;16.80;71.30;;;;;;4939277;28;96376;-46
2021/07/21 08:40:39;;;;;;;4.53;3.10;;;16.70;71.40;;;;;;4938555;28;95422;-46
2021/07/21 08:43:27;;;;;;;5.40;2.92;;;16.80;71.40;;;;;;4943667;28;96849;-46
2021/07/21 08:45:59;;;;;;;3.97;3.42;;;16.80;71.60;;;;;;4936850;28;95893;-46
2021/07/21 08:48:31;;;;;;;5.53;2.70;;;16.90;71.80;;;;;;4932919;28;96083;-46
2021/07/21 08:51:06;;;;;;;4.10;3.38;;;16.90;71.70;;;;;;4940450;28;95363;-46
2021/07/21 08:53:38;;;;;;;6.32;3.83;;;16.90;71.80;;;;;;4942521;28;96515;-45
2021/07/21 08:56:08;;;;;;;4.05;3.65;;;16.90;72.00;;;;;;4936894;28;96632;-46
2021/07/21 08:58:40;;;;;;;8.65;4.70;;;16.90;72.30;;;;;;4943835;28;95685;-46
2021/07/21 09:01:37;;;;;;;19.80;6.38;;;17.00;72.30;;;;;;4935709;28;95768;-46
2021/07/21 09:04:08;;;;;;;22.73;8.23;;;17.10;73.50;;;;;;4943207;28;96887;-47
2021/07/21 09:06:39;;;;;;;17.95;8.15;;;17.10;72.90;;;;;;4937367;28;95880;-46
2021/07/21 09:09:09;;;;;;;20.25;9.20;;;17.10;72.90;;;;;;4943098;28;95751;-42
2021/07/21 09:11:40;;;;;;;19.70;9.27;;;17.10;73.10;;;;;;4939896;28;95883;-46
2021/07/21 09:14:11;;;;;;;;;;;17.10;73.50;;;;;;4934873;28;96211;-46
2021/07/21 09:16:42;;;;;;;27.17;11.02;;;17.10;73.60;;;;;;4936662;28;96651;-46
2021/07/21 09:19:15;;;;;;;34.92;11.95;;;17.10;73.40;;;;;;4942527;28;96089;-46
2021/07/21 09:21:47;;;;;;;24.83;11.15;;;17.10;73.60;;;;;;4925152;28;95994;-46
2021/07/21 09:24:21;;;;;;;23.92;10.30;;;17.10;73.50;;;;;;4945676;28;95456;-46
2021/07/21 09:26:52;;;;;;;28.25;12.40;;;17.10;73.60;;;;;;4942541;28;96675;-46
2021/07/21 09:29:26;;;;;;;23.63;10.40;;;17.00;73.70;;;;;;4943819;28;96083;-46
2021/07/21 09:32:03;;;;;;;19.85;9.85;;;17.00;73.70;;;;;;4934901;28;95765;-45
2021/07/21 09:34:36;;;;;;;20.48;9.93;;;17.00;74.30;;;;;;4945818;28;95794;-46
2021/07/21 09:37:14;;;;;;;21.67;10.05;;;16.90;73.90;;;;;;4942492;28;96096;-46
2021/07/21 09:39:45;;;;;;;18.42;8.68;;;16.90;73.90;;;;;;4944774;28;96007;-46
2021/07/21 09:42:17;;;;;;;;;;;16.80;73.80;;;;;;4939855;28;95905;-47
2021/07/21 09:44:49;;;;;;;16.80;8.77;;;16.90;73.80;;;;;;4945940;28;95895;-45
2021/07/21 09:47:22;;;;;;;21.17;8.23;;;16.80;73.80;;;;;;4930510;28;100450;-46
2021/07/21 09:50:12;;;;;;;19.42;8.80;;;16.80;73.90;;;;;;4939491;28;96595;-45
2021/07/21 09:52:47;;;;;;;21.85;9.27;;;16.70;73.90;;;;;;4942385;28;95669;-45
2021/07/21 09:55:18;;;;;;;16.50;8.35;;;16.70;73.90;;;;;;4945730;28;96603;-46
2021/07/21 09:58:05;;;;;;;19.00;8.70;;;16.70;73.90;;;;;;4943401;28;95796;-46
2021/07/21 10:00:44;;;;;;;20.70;8.20;;;16.60;73.90;;;;;;4943296;28;95708;-46
2021/07/21 10:03:20;;;;;;;18.48;8.52;;;16.60;73.90;;;;;;4940945;28;96482;-45
2021/07/21 10:05:59;;;;;;;20.60;8.80;;;16.60;73.90;;;;;;4945239;28;95831;-46
2021/07/21 10:08:52;;;;;;;20.98;9.27;;;16.60;74.00;;;;;;4941943;28;96904;-45
2021/07/21 10:11:36;;;;;;;17.48;7.55;;;16.60;74.00;;;;;;4944681;28;95907;-46
2021/07/21 10:14:07;;;;;;;18.27;8.57;;;16.50;74.00;;;;;;4941018;28;96445;-45
2021/07/21 10:16:44;;;;;;;19.85;8.82;;;16.50;74.10;;;;;;4941381;28;95798;-46
2021/07/21 10:19:27;;;;;;;13.73;7.18;;;16.50;74.10;;;;;;4940320;28;96654;-46
2021/07/21 10:22:03;;;;;;;14.13;6.85;;;16.50;73.90;;;;;;4943647;28;95508;-46
2021/07/21 10:24:38;;;;;;;17.00;7.03;;;16.60;73.90;;;;;;4940954;28;96503;-46
2021/07/21 10:27:09;;;;;;;14.05;7.13;;;16.60;73.90;;;;;;4945333;28;95844;-46
2021/07/21 10:29:40;;;;;;;15.10;5.95;;;16.60;73.90;;;;;;4942452;28;95924;-46
2021/07/21 10:32:14;;;;;;;11.90;6.00;;;16.60;73.90;;;;;;4938811;28;96089;-46
2021/07/21 10:34:48;;;;;;;9.35;6.13;;;16.70;74.00;;;;;;4941251;28;95983;-46
2021/07/21 10:37:20;;;;;;;13.48;6.30;;;16.70;73.80;;;;;;4943760;28;96141;-46
2021/07/21 10:39:58;;;;;;;12.07;6.82;;;16.60;73.80;;;;;;4933307;28;96397;-46
2021/07/21 10:42:29;;;;;;;10.93;6.10;;;16.60;73.90;;;;;;4950318;28;95818;-46
2021/07/21 10:45:15;;;;;;;12.43;5.93;;;16.50;73.90;;;;;;4946948;28;96407;-46
2021/07/21 10:48:01;;;;;;;9.15;5.55;;;16.40;74.00;;;;;;4943311;28;97901;-46
2021/07/21 10:50:46;;;;;;;12.63;6.28;;;16.30;74.40;;;;;;4945396;28;96390;-47
2021/07/21 10:59:21;;;;;;;12.77;6.38;;;16.20;75.40;;;;;;4949826;28;95390;-46
2021/07/21 11:01:58;;;;;;;10.25;5.82;;;16.10;75.50;;;;;;4941974;28;95861;-46
2021/07/21 11:04:44;;;;;;;8.63;5.00;;;16.00;75.50;;;;;;4947849;28;95740;-46
2021/07/21 11:07:24;;;;;;;9.70;5.90;;;16.00;75.60;;;;;;4947835;28;95832;-46
2021/07/21 11:10:05;;;;;;;10.68;5.97;;;16.00;75.50;;;;;;4945494;28;95786;-45
2021/07/21 11:12:51;;;;;;;8.98;5.53;;;16.00;75.70;;;;;;4930459;28;96159;-46
2021/07/21 11:15:35;;;;;;;;;;;15.90;75.70;;;;;;4940540;28;95864;-46
2021/07/21 11:18:28;;;;;;;9.10;5.05;;;15.80;75.70;;;;;;4947532;28;95643;-46
2021/07/21 11:21:02;;;;;;;11.05;5.40;;;15.80;75.90;;;;;;4946764;28;95841;-46
2021/07/21 11:23:47;;;;;;;10.07;5.10;;;15.80;75.80;;;;;;4949023;28;96034;-46
2021/07/21 11:26:29;;;;;;;10.00;5.00;;;15.70;75.90;;;;;;4943585;28;95958;-46
2021/07/21 11:29:19;;;;;;;13.05;5.57;;;15.70;76.00;;;;;;4948643;28;95879;-46
2021/07/21 11:31:56;;;;;;;8.88;4.72;;;15.70;76.00;;;;;;4941240;28;95697;-46
2021/07/21 11:34:31;;;;;;;12.10;6.15;;;15.70;76.10;;;;;;4946850;28;95957;-46
2021/07/21 11:37:09;;;;;;;9.45;4.95;;;15.70;76.20;;;;;;4945604;28;95815;-46
2021/07/21 11:39:58;;;;;;;9.05;5.05;;;15.60;76.10;;;;;;4949043;28;97316;-46
2021/07/21 11:42:35;;;;;;;11.23;5.22;;;15.60;76.30;;;;;;4944963;28;98834;-46
2021/07/21 11:45:06;;;;;;;8.27;4.65;;;15.60;76.30;;;;;;4947150;28;95948;-46
2021/07/21 11:47:40;;;;;;;7.17;4.97;;;15.50;76.20;;;;;;4920151;28;97657;-46
2021/07/21 11:50:14;;;;;;;9.88;4.32;;;15.50;76.30;;;;;;4947949;28;96407;-46
2021/07/21 11:52:54;;;;;;;7.05;4.88;;;15.50;76.40;;;;;;4947155;28;96669;-46
2021/07/21 11:55:30;;;;;;;9.27;4.25;;;15.40;76.30;;;;;;4948945;28;95822;-46
2021/07/21 11:58:15;;;;;;;7.70;4.05;;;15.40;76.30;;;;;;4945739;28;96150;-47
2021/07/21 12:00:51;;;;;;;6.47;4.57;;;15.40;76.50;;;;;;4942392;28;95787;-46
2021/07/21 12:03:23;;;;;;;5.53;4.03;;;15.30;76.50;;;;;;4946462;28;95766;-46
2021/07/21 12:05:57;;;;;;;;;;;15.30;76.60;;;;;;4948878;28;95868;-46
2021/07/21 12:08:27;;;;;;;6.68;4.30;;;15.30;76.50;;;;;;4944967;28;95803;-46
2021/07/21 12:10:58;;;;;;;8.07;4.47;;;15.30;76.60;;;;;;4947742;28;95820;-46
2021/07/21 12:13:30;;;;;;;7.35;4.25;;;15.30;76.60;;;;;;4944458;28;95794;-46
2021/07/21 12:16:03;;;;;;;9.23;4.90;;;15.30;76.60;;;;;;4940091;28;96072;-46
2021/07/21 12:18:34;;;;;;;8.77;4.68;;;15.20;76.70;;;;;;4943319;28;95916;-46
2021/07/21 12:21:09;;;;;;;10.25;4.90;;;15.20;76.70;;;;;;4947982;28;95548;-46
2021/07/21 12:23:40;;;;;;;10.65;4.70;;;15.20;76.80;;;;;;4927466;28;95916;-46
2021/07/21 12:26:11;;;;;;;5.93;4.57;;;15.20;76.70;;;;;;4947667;28;95834;-46
2021/07/21 12:28:41;;;;;;;9.95;5.30;;;15.10;76.80;;;;;;4927753;28;96153;-45
2021/07/21 12:31:12;;;;;;;9.65;5.63;;;15.10;76.90;;;;;;4944095;28;95841;-44
2021/07/21 12:33:44;;;;;;;7.40;5.18;;;15.10;76.80;;;;;;4944482;28;96196;-46
2021/07/21 12:36:15;;;;;;;9.07;5.50;;;15.00;76.90;;;;;;4947164;28;96504;-45
2021/07/21 12:38:46;;;;;;;8.73;5.35;;;15.00;76.80;;;;;;4945108;28;95305;-46
2021/07/21 12:41:23;;;;;;;7.88;5.78;;;15.00;76.80;;;;;;4946337;28;95282;-46
2021/07/21 12:43:54;;;;;;;7.22;5.55;;;15.00;76.90;;;;;;4946190;28;96940;-46
2021/07/21 12:46:26;;;;;;;9.02;5.15;;;15.00;76.90;;;;;;4941742;28;97132;-46
2021/07/21 12:48:56;;;;;;;7.70;4.78;;;15.00;77.10;;;;;;4917626;28;97685;-46
2021/07/21 12:51:27;;;;;;;8.65;5.22;;;14.90;77.10;;;;;;4947859;28;96189;-46
2021/07/21 12:53:58;;;;;;;10.73;6.20;;;14.90;77.20;;;;;;4949379;28;95814;-46
2021/07/21 12:56:29;;;;;;;8.67;5.40;;;14.90;77.20;;;;;;4950071;28;95917;-46
2021/07/21 12:59:06;;;;;;;;;;;14.90;77.20;;;;;;4950043;28;95674;-46
2021/07/21 13:01:39;;;;;;;7.45;5.30;;;14.90;77.30;;;;;;4949209;28;95824;-46
2021/07/21 13:04:10;;;;;;;;;;;14.80;77.20;;;;;;4952258;28;95783;-45
2021/07/21 13:06:41;;;;;;;6.82;4.63;;;14.80;77.20;;;;;;4946841;28;96210;-46
2021/07/21 13:09:12;;;;;;;8.63;5.63;;;14.80;77.30;;;;;;4951416;28;95734;-46
2021/07/21 13:11:44;;;;;;;9.48;6.03;;;14.80;77.40;;;;;;4948762;28;96089;-46
2021/07/21 13:14:15;;;;;;;7.13;5.40;;;14.70;77.70;;;;;;4951383;28;96012;-46
2021/07/21 13:16:47;;;;;;;6.75;5.50;;;14.70;77.50;;;;;;4944621;28;96712;-46
2021/07/21 13:19:17;;;;;;;;;;;14.70;77.40;;;;;;4950881;28;95931;-47
2021/07/21 13:21:50;;;;;;;10.05;5.93;;;14.70;77.40;;;;;;4949789;28;95825;-46
2021/07/21 13:24:26;;;;;;;7.03;4.90;;;14.70;77.50;;;;;;4950535;28;96572;-47
2021/07/21 13:27:05;;;;;;;6.90;4.93;;;14.60;77.50;;;;;;4948345;28;96593;-46
2021/07/21 13:29:37;;;;;;;6.30;4.97;;;14.70;77.50;;;;;;4952039;28;95652;-46
2021/07/21 13:32:19;;;;;;;7.40;5.10;;;14.60;77.50;;;;;;4945001;28;96136;-45
2021/07/21 13:35:11;;;;;;;6.18;4.35;;;14.60;77.60;;;;;;4952381;28;96037;-45
2021/07/21 13:37:42;;;;;;;5.68;4.88;;;14.60;77.60;;;;;;4948586;28;96786;-45
2021/07/21 13:40:16;;;;;;;6.82;5.15;;;14.60;77.70;;;;;;4948007;28;95912;-44
2021/07/21 13:43:04;;;;;;;8.82;5.45;;;14.50;77.60;;;;;;4947671;28;95919;-46
2021/07/21 13:45:36;;;;;;;6.78;4.60;;;14.50;77.70;;;;;;4948093;28;95793;-45
2021/07/21 13:48:06;;;;;;;5.78;4.53;;;14.50;77.80;;;;;;4942919;28;98556;-46
2021/07/21 13:50:37;;;;;;;6.43;4.43;;;14.50;77.80;;;;;;4951849;28;95782;-45
2021/07/21 13:53:08;;;;;;;6.88;5.13;;;14.50;77.80;;;;;;4949537;28;99875;-45